createdAt,value
2023-11-11T00:01:40.020Z,1.00
2023-11-11T00:04:09.820Z,1.00
2023-11-11T00:06:38.601Z,1.00
2023-11-11T00:09:07.502Z,1.00
2023-11-11T00:11:38.010Z,1.00
2023-11-11T00:14:06.932Z,1.00
2023-11-11T00:16:36.371Z,1.00
2023-11-11T00:19:05.182Z,1.00
2023-11-11T00:21:34.577Z,1.00
2023-11-11T00:24:03.379Z,1.00
2023-11-11T00:26:32.130Z,1.00
2023-11-11T00:29:04.198Z,1.00
2023-11-11T00:31:34.884Z,1.00
2023-11-11T00:34:03.715Z,1.00
2023-11-11T00:36:32.383Z,1.00
2023-11-11T00:39:01.114Z,13.20
2023-11-11T00:41:29.776Z,23.20
2023-11-11T00:43:58.794Z,1.00
2023-11-11T00:46:28.927Z,1.00
2023-11-11T00:48:58.334Z,1.00
2023-11-11T00:51:27.548Z,1.00
2023-11-11T00:53:57.819Z,1.00
2023-11-11T00:56:26.692Z,1.00
2023-11-11T00:58:55.428Z,1.00
2023-11-11T01:01:24.334Z,1.00
2023-11-11T01:03:54.577Z,1.00
2023-11-11T01:06:23.390Z,1.00
2023-11-11T01:08:52.059Z,1.00
2023-11-11T01:11:22.071Z,1.00
2023-11-11T01:13:51.136Z,1.00
2023-11-11T01:16:19.957Z,1.00
2023-11-11T01:18:49.312Z,1.00
2023-11-11T01:21:19.796Z,1.00
2023-11-11T01:23:48.615Z,1.00
2023-11-11T01:26:17.949Z,1.00
2023-11-11T01:28:46.780Z,1.00
2023-11-11T01:31:17.029Z,1.00
2023-11-11T01:33:45.799Z,1.00
2023-11-11T01:36:14.775Z,1.00
2023-11-11T01:38:44.965Z,1.00
2023-11-11T01:41:14.482Z,1.00
2023-11-11T01:43:43.187Z,1.00
2023-11-11T01:46:12.482Z,1.00
2023-11-11T01:48:42.816Z,1.00
2023-11-11T01:51:11.778Z,1.00
2023-11-11T01:53:40.780Z,1.00
2023-11-11T01:56:11.460Z,1.00
2023-11-11T01:58:40.987Z,1.00
2023-11-11T02:01:10.780Z,1.00
2023-11-11T02:03:40.372Z,1.00
2023-11-11T02:06:12.532Z,1.00
2023-11-11T02:08:41.340Z,1.00
2023-11-11T02:11:12.212Z,1.00
2023-11-11T02:13:41.219Z,1.00
2023-11-11T02:16:10.619Z,1.00
2023-11-11T02:18:39.644Z,1.00
2023-11-11T02:21:08.505Z,1.00
2023-11-11T02:23:39.762Z,1.00
2023-11-11T02:26:08.523Z,1.00
2023-11-11T02:28:37.312Z,1.00
2023-11-11T02:31:06.975Z,1.00
2023-11-11T02:33:37.439Z,1.00
2023-11-11T02:36:07.889Z,1.00
2023-11-11T02:38:38.168Z,1.00
2023-11-11T02:41:07.040Z,1.00
2023-11-11T02:43:35.927Z,1.00
2023-11-11T02:46:04.876Z,1.00
2023-11-11T02:48:34.176Z,1.00
2023-11-11T02:51:02.968Z,1.00
2023-11-11T02:53:31.752Z,1.00
2023-11-11T02:56:01.863Z,1.00
2023-11-11T02:58:30.572Z,1.00
2023-11-11T03:00:59.255Z,1.00
2023-11-11T03:03:29.111Z,1.00
2023-11-11T03:05:57.858Z,1.00
2023-11-11T03:08:26.646Z,1.00
2023-11-11T03:10:55.471Z,1.00
2023-11-11T03:13:25.734Z,1.00
2023-11-11T03:15:55.343Z,1.00
2023-11-11T03:18:24.397Z,1.00
2023-11-11T03:20:54.108Z,1.00
2023-11-11T03:23:22.908Z,1.00
2023-11-11T03:25:51.874Z,1.00
2023-11-11T03:28:20.660Z,1.00
2023-11-11T03:30:50.827Z,1.00
2023-11-11T03:33:19.558Z,1.00
2023-11-11T03:35:52.500Z,1.00
2023-11-11T03:38:23.340Z,1.00
2023-11-11T03:40:51.994Z,1.00
2023-11-11T03:43:20.720Z,1.00
2023-11-11T03:45:51.028Z,1.00
2023-11-11T03:48:19.816Z,1.00
2023-11-11T03:50:48.634Z,1.00
2023-11-11T03:53:17.800Z,1.00
2023-11-11T03:55:46.518Z,1.00
2023-11-11T03:58:15.173Z,1.00
2023-11-11T04:00:45.036Z,1.00
2023-11-11T04:03:15.627Z,1.00
2023-11-11T04:05:44.518Z,1.00
2023-11-11T04:08:13.946Z,1.00
2023-11-11T04:10:42.787Z,1.00
2023-11-11T04:13:13.513Z,1.00
2023-11-11T04:15:42.406Z,1.00
2023-11-11T04:18:11.267Z,1.00
2023-11-11T04:20:41.460Z,1.00
2023-11-11T04:23:10.390Z,1.00
2023-11-11T04:25:39.238Z,1.00
2023-11-11T04:28:07.929Z,1.00
2023-11-11T04:30:36.608Z,1.00
2023-11-11T04:33:05.847Z,1.00
2023-11-11T04:35:34.527Z,1.00
2023-11-11T04:38:09.377Z,1.00
2023-11-11T04:40:38.947Z,1.00
2023-11-11T04:43:08.113Z,1.00
2023-11-11T04:45:37.207Z,1.00
2023-11-11T04:48:06.458Z,1.00
2023-11-11T04:50:35.276Z,1.00
2023-11-11T04:53:05.360Z,1.00
2023-11-11T04:55:34.135Z,1.00
2023-11-11T04:58:02.919Z,1.00
2023-11-11T05:00:31.663Z,1.00
2023-11-11T05:03:01.908Z,1.00
2023-11-11T05:05:30.872Z,1.00
2023-11-11T05:07:59.608Z,1.00
2023-11-11T05:10:32.160Z,1.00
2023-11-11T05:13:02.624Z,1.00
2023-11-11T05:15:31.876Z,1.00
2023-11-11T05:18:00.639Z,1.00
2023-11-11T05:20:29.437Z,1.00
2023-11-11T05:22:58.671Z,1.00
2023-11-11T05:25:29.490Z,1.00
2023-11-11T05:27:58.603Z,1.00
2023-11-11T05:30:28.118Z,1.00
2023-11-11T05:32:56.937Z,1.00
2023-11-11T05:35:25.649Z,1.00
2023-11-11T05:37:55.920Z,1.00
2023-11-11T05:40:24.665Z,1.00
2023-11-11T05:42:54.883Z,1.00
2023-11-11T05:45:23.691Z,1.00
2023-11-11T05:47:52.544Z,1.00
2023-11-11T05:50:21.815Z,1.00
2023-11-11T05:52:51.336Z,15.10
2023-11-11T05:55:20.776Z,43.60
2023-11-11T05:57:49.537Z,46.90
2023-11-11T06:00:20.481Z,41.80
2023-11-11T06:02:49.278Z,38.40
2023-11-11T06:05:18.121Z,37.90
2023-11-11T06:07:46.915Z,39.60
2023-11-11T06:10:15.779Z,23.50
2023-11-11T06:12:44.932Z,22.90
2023-11-11T06:15:14.728Z,4.00
2023-11-11T06:17:44.918Z,4.50
2023-11-11T06:20:14.595Z,22.30
2023-11-11T06:22:44.029Z,50.00
2023-11-11T06:25:12.770Z,70.20
2023-11-11T06:27:42.329Z,95.50
2023-11-11T06:30:11.892Z,86.30
2023-11-11T06:32:42.441Z,80.10
2023-11-11T06:35:13.728Z,62.70
2023-11-11T06:37:43.067Z,49.30
2023-11-11T06:40:12.524Z,38.10
2023-11-11T06:42:41.742Z,38.70
2023-11-11T06:45:16.270Z,39.40
2023-11-11T06:47:45.617Z,48.10
2023-11-11T06:50:18.504Z,56.10
2023-11-11T06:52:47.511Z,55.90
2023-11-11T06:55:16.259Z,49.70
2023-11-11T06:57:45.010Z,51.10
2023-11-11T07:00:17.662Z,27.50
2023-11-11T07:02:48.970Z,25.90
2023-11-11T07:05:19.262Z,16.70
2023-11-11T07:07:48.355Z,9.60
2023-11-11T07:10:17.269Z,1.00
2023-11-11T07:12:46.472Z,1.00
2023-11-11T07:15:17.171Z,1.00
2023-11-11T07:17:46.543Z,1.00
2023-11-11T07:20:20.568Z,1.00
2023-11-11T07:22:51.422Z,1.00
2023-11-11T07:25:22.410Z,1.00
2023-11-11T07:27:51.186Z,1.00
2023-11-11T07:30:20.125Z,1.00
2023-11-11T07:32:57.224Z,1.00
2023-11-11T07:35:30.784Z,1.00
2023-11-11T07:38:02.298Z,1.00
2023-11-11T07:40:33.833Z,1.00
2023-11-11T07:43:02.635Z,1.00
2023-11-11T07:45:31.378Z,1.00
2023-11-11T07:48:00.100Z,1.00
2023-11-11T07:50:28.797Z,1.00
2023-11-11T07:52:57.478Z,99.90
2023-11-11T07:55:27.780Z,99.90
2023-11-11T08:00:28.060Z,99.90
2023-11-11T08:02:57.412Z,1.00
2023-11-11T08:05:29.707Z,1.00
2023-11-11T08:08:11.504Z,1.00
2023-11-11T08:10:47.470Z,1.00
2023-11-11T08:13:16.284Z,99.90
2023-11-11T08:15:45.335Z,99.90
2023-11-11T08:18:14.480Z,99.90
2023-11-11T08:20:43.882Z,99.90
2023-11-11T08:23:12.707Z,99.90
2023-11-11T08:25:41.662Z,1.00
2023-11-11T08:28:11.850Z,1.00
2023-11-11T08:30:42.306Z,1.00
2023-11-11T08:33:11.969Z,1.00
2023-11-11T08:35:40.601Z,1.00
2023-11-11T08:38:09.420Z,99.90
2023-11-11T08:40:38.203Z,1.00
2023-11-11T08:43:11.247Z,99.90
2023-11-11T08:45:40.015Z,1.00
2023-11-11T08:48:08.850Z,15.20
2023-11-11T08:50:37.641Z,1.00
2023-11-11T08:53:06.488Z,1.00
2023-11-11T08:55:35.876Z,99.90
2023-11-11T08:58:05.807Z,99.90
2023-11-11T09:00:36.682Z,99.90
2023-11-11T09:03:06.409Z,99.90
2023-11-11T09:05:35.711Z,99.90
2023-11-11T09:08:04.486Z,99.90
2023-11-11T09:10:33.288Z,99.90
2023-11-11T09:13:02.320Z,99.90
2023-11-11T09:15:31.413Z,91.60
2023-11-11T09:18:02.790Z,99.90
2023-11-11T09:20:31.567Z,1.00
2023-11-11T09:23:00.335Z,1.00
2023-11-11T09:25:31.096Z,1.00
2023-11-11T09:28:00.063Z,1.00
2023-11-11T09:30:29.443Z,1.00
2023-11-11T09:32:59.642Z,1.00
2023-11-11T09:35:29.973Z,99.90
2023-11-11T09:37:58.854Z,99.90
2023-11-11T09:40:27.731Z,99.90
2023-11-11T09:42:56.506Z,1.00
2023-11-11T09:45:25.919Z,99.90
2023-11-11T09:47:55.470Z,99.90
2023-11-11T09:50:27.039Z,99.90
2023-11-11T09:52:59.061Z,99.90
2023-11-11T09:55:30.364Z,99.90
2023-11-11T09:57:59.504Z,99.90
2023-11-11T10:00:32.997Z,99.90
2023-11-11T10:03:03.227Z,99.90
2023-11-11T10:05:32.809Z,92.80
2023-11-11T10:08:03.017Z,84.30
2023-11-11T10:10:33.654Z,45.80
2023-11-11T10:13:02.506Z,38.30
2023-11-11T10:15:31.628Z,14.60
2023-11-11T10:18:04.453Z,29.60
2023-11-11T10:20:33.272Z,20.40
2023-11-11T10:23:03.492Z,41.80
2023-11-11T10:25:32.564Z,13.10
2023-11-11T10:28:02.570Z,6.00
2023-11-11T10:30:31.287Z,18.60
2023-11-11T10:33:05.912Z,1.00
2023-11-11T10:35:34.938Z,1.00
2023-11-11T10:38:05.561Z,1.00
2023-11-11T10:40:35.736Z,1.00
2023-11-11T10:43:05.729Z,1.00
2023-11-11T10:45:35.119Z,1.00
2023-11-11T10:48:04.389Z,1.00
2023-11-11T10:50:33.598Z,1.00
2023-11-11T10:53:05.490Z,1.00
2023-11-11T10:55:37.902Z,1.00
2023-11-11T10:58:08.436Z,1.00
2023-11-11T11:00:38.039Z,1.00
2023-11-11T11:03:07.777Z,1.00
2023-11-11T11:05:42.943Z,1.00
2023-11-11T11:08:21.305Z,1.00
2023-11-11T11:10:59.739Z,1.00
2023-11-11T11:13:30.813Z,1.00
2023-11-11T11:16:00.839Z,1.00
2023-11-11T11:18:29.627Z,1.00
2023-11-11T11:21:00.723Z,1.00
2023-11-11T11:23:38.811Z,1.00
2023-11-11T11:26:07.782Z,1.00
2023-11-11T11:28:36.684Z,1.00
2023-11-11T11:31:05.711Z,1.00
2023-11-11T11:33:37.532Z,1.00
2023-11-11T11:36:10.831Z,1.00
2023-11-11T11:38:42.390Z,1.00
2023-11-11T11:41:14.164Z,1.00
2023-11-11T11:43:44.068Z,1.00
2023-11-11T11:46:13.056Z,1.00
2023-11-11T11:48:44.149Z,1.00
2023-11-11T11:51:14.296Z,1.00
2023-11-11T11:53:46.823Z,1.00
2023-11-11T11:56:30.132Z,1.00
2023-11-11T11:59:00.882Z,1.00
2023-11-11T12:01:30.952Z,1.00
2023-11-11T12:04:01.500Z,1.00
2023-11-11T12:06:30.721Z,1.00
2023-11-11T12:09:02.567Z,1.00
2023-11-11T12:11:32.695Z,1.00
2023-11-11T12:14:06.668Z,1.00
2023-11-11T12:16:40.229Z,1.00
2023-11-11T12:19:13.544Z,1.00
2023-11-11T12:21:46.039Z,1.00
2023-11-11T12:24:18.565Z,1.00
2023-11-11T12:26:49.281Z,1.00
2023-11-11T12:29:20.577Z,1.00
2023-11-11T12:31:50.403Z,1.00
2023-11-11T12:34:21.040Z,1.00
2023-11-11T12:36:50.243Z,1.00
2023-11-11T12:39:22.287Z,1.00
2023-11-11T12:41:55.163Z,1.00
2023-11-11T12:44:26.129Z,1.00
2023-11-11T12:46:57.887Z,1.00
2023-11-11T12:49:29.601Z,1.00
2023-11-11T12:52:01.403Z,1.00
2023-11-11T12:54:35.983Z,1.00
2023-11-11T12:57:05.263Z,1.00
2023-11-11T12:59:34.189Z,1.00
2023-11-11T13:02:03.617Z,1.00
2023-11-11T13:04:33.153Z,1.00
2023-11-11T13:07:03.043Z,1.00
2023-11-11T13:09:44.349Z,1.00
2023-11-11T13:12:14.704Z,1.00
2023-11-11T13:14:46.529Z,1.00
2023-11-11T13:17:16.140Z,1.00
2023-11-11T13:19:47.185Z,1.00
2023-11-11T13:22:16.122Z,1.00
2023-11-11T13:24:46.298Z,1.00
2023-11-11T13:27:15.154Z,1.00
2023-11-11T13:29:44.258Z,1.00
2023-11-11T13:32:13.915Z,1.00
2023-11-11T13:34:45.733Z,1.00
2023-11-11T13:37:23.651Z,1.00
2023-11-11T13:40:02.258Z,1.00
2023-11-11T13:42:31.907Z,1.00
2023-11-11T13:45:01.065Z,1.00
2023-11-11T13:47:30.384Z,1.00
2023-11-11T13:50:01.094Z,1.00
2023-11-11T13:52:30.009Z,1.00
2023-11-11T13:55:00.294Z,1.00
2023-11-11T13:57:29.061Z,1.00
2023-11-11T13:59:57.740Z,1.00
2023-11-11T14:02:27.326Z,1.00
2023-11-11T14:04:57.959Z,1.00
2023-11-11T14:07:28.894Z,1.00
2023-11-11T14:09:57.794Z,1.00
2023-11-11T14:12:28.101Z,1.00
2023-11-11T14:14:57.572Z,1.00
2023-11-11T14:17:27.921Z,1.00
2023-11-11T14:19:57.602Z,1.00
2023-11-11T14:22:29.085Z,1.00
2023-11-11T14:24:58.004Z,1.00
2023-11-11T14:27:28.898Z,1.00
2023-11-11T14:29:58.016Z,1.00
2023-11-11T14:32:28.079Z,1.00
2023-11-11T14:34:58.470Z,1.00
2023-11-11T14:37:27.516Z,1.00
2023-11-11T14:39:57.065Z,1.00
2023-11-11T14:42:25.797Z,1.00
2023-11-11T14:44:56.743Z,1.00
2023-11-11T14:47:26.455Z,1.00
2023-11-11T14:49:55.425Z,1.00
2023-11-11T14:52:24.222Z,1.00
2023-11-11T14:54:53.022Z,14.20
2023-11-11T14:57:22.593Z,27.30
2023-11-11T14:59:51.345Z,39.80
2023-11-11T15:02:22.184Z,59.00
2023-11-11T15:04:51.136Z,77.10
2023-11-11T15:07:20.081Z,84.80
2023-11-11T15:09:49.198Z,99.90
2023-11-11T15:12:20.848Z,99.90
2023-11-11T15:14:50.025Z,99.90
2023-11-11T15:17:19.269Z,99.90
2023-11-11T15:19:50.987Z,99.90
2023-11-11T15:22:20.430Z,99.90
2023-11-11T15:24:49.588Z,99.90
2023-11-11T15:27:18.417Z,99.90
2023-11-11T15:29:49.458Z,99.90
2023-11-11T15:32:21.321Z,99.90
2023-11-11T15:34:52.085Z,99.90
2023-11-11T15:37:21.003Z,99.90
2023-11-11T15:39:50.270Z,99.90
2023-11-11T15:42:19.185Z,99.90
2023-11-11T15:44:49.216Z,1.00
2023-11-11T15:47:18.645Z,1.00
2023-11-11T15:49:47.802Z,1.00
2023-11-11T15:52:17.938Z,1.00
2023-11-11T15:54:46.690Z,1.00
2023-11-11T15:57:15.461Z,1.00
2023-11-11T15:59:44.198Z,1.00
2023-11-11T16:02:13.522Z,1.00
2023-11-11T16:04:42.492Z,1.00
2023-11-11T16:07:11.679Z,1.00
2023-11-11T16:09:42.318Z,1.00
2023-11-11T16:12:14.504Z,5.30
2023-11-11T16:14:43.326Z,92.00
2023-11-11T16:17:14.639Z,39.90
2023-11-11T16:19:46.378Z,99.90
2023-11-11T16:22:15.925Z,99.90
2023-11-11T16:24:46.769Z,99.90
2023-11-11T16:27:15.517Z,99.90
2023-11-11T16:29:44.292Z,99.90
2023-11-11T16:32:13.056Z,99.90
2023-11-11T16:34:41.907Z,99.90
2023-11-11T16:37:11.560Z,99.90
2023-11-11T16:39:43.003Z,1.00
2023-11-11T16:42:17.073Z,1.00
2023-11-11T16:44:48.405Z,1.00
2023-11-11T16:47:18.479Z,1.00
2023-11-11T16:49:48.536Z,1.00
2023-11-11T16:52:18.814Z,99.90
2023-11-11T16:54:47.663Z,99.90
2023-11-11T16:57:17.980Z,99.90
2023-11-11T16:59:47.225Z,99.90
2023-11-11T17:02:18.428Z,99.90
2023-11-11T17:04:47.355Z,99.90
2023-11-11T17:07:24.724Z,99.90
2023-11-11T17:09:58.311Z,99.90
2023-11-11T17:12:30.074Z,99.90
2023-11-11T17:14:59.472Z,1.00
2023-11-11T17:17:28.799Z,1.00
2023-11-11T17:19:58.668Z,99.90
2023-11-11T17:22:28.326Z,83.00
2023-11-11T17:24:58.654Z,99.90
2023-11-11T17:27:28.554Z,99.90
2023-11-11T17:30:02.033Z,1.00
2023-11-11T17:32:32.078Z,1.00
2023-11-11T17:35:01.840Z,95.90
2023-11-11T17:37:31.883Z,99.90
2023-11-11T17:40:01.050Z,99.90
2023-11-11T17:42:29.972Z,99.90
2023-11-11T17:45:00.316Z,1.00
2023-11-11T17:47:29.140Z,1.00
2023-11-11T17:49:58.593Z,99.90
2023-11-11T17:52:27.862Z,99.90
2023-11-11T17:54:56.718Z,99.90
2023-11-11T17:57:26.056Z,99.90
2023-11-11T17:59:55.207Z,1.00
2023-11-11T18:02:27.341Z,1.00
2023-11-11T18:04:56.269Z,1.00
2023-11-11T18:07:25.046Z,1.00
2023-11-11T18:09:54.200Z,1.00
2023-11-11T18:12:23.158Z,1.00
2023-11-11T18:14:51.913Z,1.00
2023-11-11T18:17:21.348Z,1.00
2023-11-11T18:19:52.184Z,1.00
2023-11-11T18:22:20.093Z,1.00
2023-11-11T18:24:48.782Z,1.00
2023-11-11T18:27:18.123Z,1.00
2023-11-11T18:29:47.127Z,1.00
2023-11-11T18:32:16.423Z,1.00
2023-11-11T18:34:45.715Z,1.00
2023-11-11T18:37:16.753Z,1.00
2023-11-11T18:39:46.160Z,1.00
2023-11-11T18:42:17.523Z,1.00
2023-11-11T18:44:47.892Z,1.00
2023-11-11T18:47:18.626Z,1.00
2023-11-11T18:49:49.308Z,1.00
2023-11-11T18:52:22.493Z,1.00
2023-11-11T18:54:53.318Z,1.00
2023-11-11T18:57:24.070Z,1.00
2023-11-11T18:59:55.322Z,1.00
2023-11-11T19:02:27.187Z,1.00
2023-11-11T19:04:58.383Z,1.00
2023-11-11T19:07:31.182Z,1.00
2023-11-11T19:10:01.969Z,1.00
2023-11-11T19:12:32.816Z,1.00
2023-11-11T19:15:03.898Z,1.00
2023-11-11T19:17:35.070Z,1.00
2023-11-11T19:20:09.576Z,1.00
2023-11-11T19:22:42.437Z,1.00
2023-11-11T19:25:13.504Z,1.00
2023-11-11T19:27:45.675Z,1.00
2023-11-11T19:30:17.168Z,1.00
2023-11-11T19:32:48.830Z,1.00
2023-11-11T19:35:23.761Z,1.00
2023-11-11T19:37:58.813Z,1.00
2023-11-11T19:40:30.576Z,1.00
2023-11-11T19:43:01.660Z,1.00
2023-11-11T19:45:32.653Z,1.00
2023-11-11T19:48:03.480Z,1.00
2023-11-11T19:50:34.668Z,1.00
2023-11-11T19:53:07.918Z,1.00
2023-11-11T19:55:39.883Z,7.20
2023-11-11T19:58:10.305Z,23.80
2023-11-11T20:00:39.541Z,12.40
2023-11-11T20:03:09.622Z,32.30
2023-11-11T20:05:39.420Z,56.10
2023-11-11T20:08:12.009Z,77.60
2023-11-11T20:10:42.475Z,53.30
2023-11-11T20:13:12.481Z,85.10
2023-11-11T20:15:43.075Z,72.50
2023-11-11T20:18:13.173Z,99.90
2023-11-11T20:20:42.846Z,99.90
2023-11-11T20:23:13.968Z,99.90
2023-11-11T20:25:43.938Z,99.90
2023-11-11T20:28:13.836Z,99.90
2023-11-11T20:30:43.897Z,99.90
2023-11-11T20:33:14.460Z,99.90
2023-11-11T20:35:53.842Z,99.90
2023-11-11T20:38:25.905Z,99.90
2023-11-11T20:40:56.351Z,99.90
2023-11-11T20:43:27.096Z,99.90
2023-11-11T20:45:58.432Z,99.90
2023-11-11T20:48:29.268Z,99.90
2023-11-11T20:51:00.309Z,99.90
2023-11-11T20:53:33.957Z,99.90
2023-11-11T20:56:04.801Z,99.90
2023-11-11T20:58:35.667Z,99.90
2023-11-11T21:01:04.580Z,99.90
2023-11-11T21:03:33.454Z,99.90
2023-11-11T21:06:02.425Z,99.90
2023-11-11T21:08:32.657Z,99.90
2023-11-11T21:11:01.697Z,99.90
2023-11-11T21:13:31.618Z,99.90
2023-11-11T21:16:00.364Z,99.90
2023-11-11T21:18:29.119Z,99.90
2023-11-11T21:20:57.922Z,99.90
2023-11-11T21:23:26.648Z,99.90
2023-11-11T21:25:56.878Z,99.90
2023-11-11T21:28:25.689Z,99.90
2023-11-11T21:30:56.427Z,99.90
2023-11-11T21:33:25.547Z,99.90
2023-11-11T21:35:54.379Z,99.90
2023-11-11T21:38:25.336Z,99.90
2023-11-11T21:40:56.356Z,99.90
2023-11-11T21:43:25.168Z,99.90
2023-11-11T21:45:54.606Z,99.90
2023-11-11T21:48:23.425Z,99.90
2023-11-11T21:50:52.213Z,99.90
2023-11-11T21:53:21.502Z,99.90
2023-11-11T21:55:50.226Z,99.90
2023-11-11T21:58:20.375Z,99.90
2023-11-11T22:00:49.101Z,99.90
2023-11-11T22:03:17.900Z,99.90
2023-11-11T22:05:46.768Z,99.90
2023-11-11T22:08:15.557Z,99.90
2023-11-11T22:10:44.530Z,99.90
2023-11-11T22:13:13.456Z,99.90
2023-11-11T22:15:43.576Z,99.90
2023-11-11T22:18:12.491Z,99.90
2023-11-11T22:20:41.285Z,99.90
2023-11-11T22:23:10.056Z,99.90
2023-11-11T22:25:38.822Z,99.90
2023-11-11T22:28:07.542Z,99.90
2023-11-11T22:30:36.320Z,99.90
2023-11-11T22:33:12.854Z,99.90
2023-11-11T22:35:42.834Z,99.90
2023-11-11T22:38:11.705Z,99.90
2023-11-11T22:40:40.874Z,99.90
2023-11-11T22:43:09.621Z,99.90
2023-11-11T22:45:38.279Z,99.90
2023-11-11T22:48:10.165Z,99.90
2023-11-11T22:50:40.369Z,99.90
2023-11-11T22:53:09.732Z,99.90
2023-11-11T22:55:38.930Z,99.90
2023-11-11T22:58:08.968Z,99.90
2023-11-11T23:00:42.544Z,99.90
2023-11-11T23:03:12.659Z,99.90
2023-11-11T23:05:44.661Z,99.90
2023-11-11T23:08:15.077Z,99.90
2023-11-11T23:10:45.359Z,99.90
2023-11-11T23:13:14.368Z,99.90
2023-11-11T23:15:43.488Z,99.90
2023-11-11T23:18:13.341Z,99.90
2023-11-11T23:20:45.369Z,99.90
2023-11-11T23:23:15.025Z,99.90
2023-11-11T23:25:44.404Z,99.90
2023-11-11T23:28:13.163Z,99.90
2023-11-11T23:30:42.067Z,99.90
2023-11-11T23:33:12.257Z,99.90
2023-11-11T23:35:42.497Z,99.90
2023-11-11T23:38:11.216Z,99.90
2023-11-11T23:40:41.388Z,99.90
2023-11-11T23:43:10.380Z,99.90
2023-11-11T23:45:39.066Z,99.90
2023-11-11T23:48:08.120Z,99.90
2023-11-11T23:50:36.864Z,99.90
2023-11-11T23:53:06.994Z,99.90
2023-11-11T23:55:36.030Z,99.90
2023-11-11T23:58:04.890Z,99.90
